createdAt,value
2017-10-12T00:01:15.793Z,15.20
2017-10-12T00:03:44.084Z,23.03
2017-10-12T00:06:12.365Z,24.93
2017-10-12T00:08:40.657Z,27.60
2017-10-12T00:11:08.168Z,25.37
2017-10-12T00:13:35.694Z,20.90
2017-10-12T00:16:03.209Z,21.60
2017-10-12T00:18:31.483Z,18.47
2017-10-12T00:20:59.769Z,16.00
2017-10-12T00:23:27.307Z,10.40
2017-10-12T00:25:55.577Z,11.70
2017-10-12T00:28:23.569Z,11.33
2017-10-12T00:30:51.086Z,9.80
2017-10-12T00:33:18.588Z,13.53
2017-10-12T00:35:46.124Z,10.93
2017-10-12T00:38:14.440Z,11.53
2017-10-12T00:40:41.968Z,9.97
2017-10-12T00:43:10.266Z,9.03
2017-10-12T00:45:37.777Z,10.13
2017-10-12T00:48:05.306Z,10.67
2017-10-12T00:50:32.856Z,10.50
2017-10-12T00:53:00.378Z,13.70
2017-10-12T00:55:28.669Z,12.10
2017-10-12T00:57:56.180Z,12.73
2017-10-12T01:00:23.716Z,12.43
2017-10-12T01:02:51.225Z,11.47
2017-10-12T01:05:19.517Z,11.40
2017-10-12T01:07:47.044Z,9.83
2017-10-12T01:10:14.545Z,10.40
2017-10-12T01:12:42.064Z,10.40
2017-10-12T01:15:10.352Z,10.13
2017-10-12T01:17:38.653Z,10.10
2017-10-12T01:20:06.160Z,8.90
2017-10-12T01:22:34.433Z,10.37
2017-10-12T01:25:01.949Z,9.33
2017-10-12T01:27:29.451Z,10.10
2017-10-12T01:29:56.996Z,9.20
2017-10-12T01:32:24.508Z,8.40
2017-10-12T01:34:52.016Z,9.30
2017-10-12T01:37:19.552Z,10.17
2017-10-12T01:39:47.088Z,8.97
2017-10-12T01:42:14.606Z,9.57
2017-10-12T01:44:42.864Z,8.20
2017-10-12T01:47:10.391Z,7.70
2017-10-12T01:49:37.887Z,7.60
2017-10-12T01:52:06.156Z,8.87
2017-10-12T01:54:33.664Z,7.40
2017-10-12T01:57:01.192Z,9.50
2017-10-12T01:59:29.473Z,7.17
2017-10-12T02:01:57.734Z,7.53
2017-10-12T02:04:26.014Z,6.40
2017-10-12T02:06:54.278Z,6.67
2017-10-12T02:09:21.788Z,6.93
2017-10-12T02:11:49.307Z,6.40
2017-10-12T02:14:17.563Z,7.50
2017-10-12T02:16:45.224Z,8.00
2017-10-12T02:19:12.722Z,9.47
2017-10-12T02:21:40.229Z,8.60
2017-10-12T02:24:07.734Z,9.70
2017-10-12T02:26:35.249Z,8.63
2017-10-12T02:29:02.741Z,9.50
2017-10-12T02:31:30.261Z,9.20
2017-10-12T02:33:57.793Z,8.10
2017-10-12T02:36:25.280Z,8.83
2017-10-12T02:38:52.804Z,8.73
2017-10-12T02:41:20.301Z,8.97
2017-10-12T02:43:49.331Z,9.53
2017-10-12T02:46:16.829Z,9.80
2017-10-12T02:48:44.341Z,8.13
2017-10-12T02:51:11.892Z,9.50
2017-10-12T02:53:40.169Z,9.10
2017-10-12T02:56:08.458Z,9.23
2017-10-12T02:58:35.960Z,9.63
2017-10-12T03:01:03.553Z,8.87
2017-10-12T03:03:31.816Z,8.70
2017-10-12T03:05:59.339Z,9.40
2017-10-12T03:08:26.867Z,9.87
2017-10-12T03:10:54.369Z,7.70
2017-10-12T03:13:21.909Z,8.73
2017-10-12T03:15:49.410Z,8.40
2017-10-12T03:18:17.700Z,9.70
2017-10-12T03:20:45.236Z,7.40
2017-10-12T03:23:12.740Z,7.73
2017-10-12T03:25:40.257Z,7.50
2017-10-12T03:28:08.520Z,7.07
2017-10-12T03:30:36.063Z,6.60
2017-10-12T03:33:03.553Z,5.80
2017-10-12T03:35:31.812Z,5.20
2017-10-12T03:37:59.328Z,6.37
2017-10-12T03:40:26.852Z,5.00
2017-10-12T03:42:54.366Z,5.13
2017-10-12T03:45:21.861Z,5.57
2017-10-12T03:47:50.140Z,6.30
2017-10-12T03:50:18.391Z,6.13
2017-10-12T03:52:45.900Z,6.20
2017-10-12T03:55:13.396Z,6.70
2017-10-12T03:57:40.952Z,5.60
2017-10-12T04:00:08.448Z,5.70
2017-10-12T04:02:35.999Z,5.97
2017-10-12T04:05:04.270Z,5.83
2017-10-12T04:07:32.525Z,5.77
2017-10-12T04:10:00.056Z,6.60
2017-10-12T04:12:27.562Z,6.10
2017-10-12T04:14:55.088Z,5.20
2017-10-12T04:17:23.348Z,5.57
2017-10-12T04:19:50.873Z,5.50
2017-10-12T04:22:18.385Z,4.70
2017-10-12T04:24:45.889Z,4.77
2017-10-12T04:27:13.416Z,4.93
2017-10-12T04:29:41.681Z,4.40
2017-10-12T04:32:09.193Z,4.53
2017-10-12T04:34:36.725Z,5.70
2017-10-12T04:37:04.269Z,4.97
2017-10-12T04:39:32.550Z,4.63
2017-10-12T04:42:00.817Z,4.50
2017-10-12T04:44:29.108Z,4.70
2017-10-12T04:46:56.614Z,4.43
2017-10-12T04:49:24.168Z,4.43
2017-10-12T04:51:51.668Z,5.20
2017-10-12T04:54:19.935Z,4.97
2017-10-12T04:56:48.220Z,3.80
2017-10-12T04:59:16.495Z,5.33
2017-10-12T05:01:44.793Z,4.90
2017-10-12T05:04:12.306Z,5.10
2017-10-12T05:06:40.603Z,5.07
2017-10-12T05:09:08.868Z,4.23
2017-10-12T05:11:36.401Z,5.27
2017-10-12T05:14:03.912Z,4.30
2017-10-12T05:16:31.413Z,4.80
2017-10-12T05:18:58.948Z,5.60
2017-10-12T05:21:26.460Z,4.60
2017-10-12T05:23:54.736Z,4.00
2017-10-12T05:26:23.012Z,3.90
2017-10-12T05:28:51.288Z,4.03
2017-10-12T05:31:19.544Z,5.27
2017-10-12T05:33:47.052Z,4.60
2017-10-12T05:36:14.587Z,5.90
2017-10-12T05:38:42.860Z,3.97
2017-10-12T05:41:11.126Z,4.23
2017-10-12T05:43:39.436Z,3.80
2017-10-12T05:46:06.920Z,3.23
2017-10-12T05:48:34.444Z,3.63
2017-10-12T05:51:01.952Z,3.40
2017-10-12T05:53:29.496Z,3.07
2017-10-12T05:55:57.012Z,3.47
2017-10-12T05:58:24.547Z,3.67
2017-10-12T06:00:52.826Z,2.63
2017-10-12T06:03:21.114Z,3.30
2017-10-12T06:05:48.605Z,3.60
2017-10-12T06:08:16.134Z,3.40
2017-10-12T06:10:43.657Z,3.20
2017-10-12T06:13:11.914Z,3.00
2017-10-12T06:15:39.456Z,4.13
2017-10-12T06:18:06.972Z,3.67
2017-10-12T06:20:35.254Z,3.40
2017-10-12T06:23:02.749Z,3.40
2017-10-12T06:25:30.251Z,2.90
2017-10-12T06:27:58.516Z,4.17
2017-10-12T06:30:26.037Z,3.10
2017-10-12T06:32:53.532Z,3.47
2017-10-12T06:35:21.057Z,3.50
2017-10-12T06:37:48.557Z,3.07
2017-10-12T06:40:16.831Z,3.43
2017-10-12T06:42:45.112Z,2.70
2017-10-12T06:45:13.397Z,3.43
2017-10-12T06:47:40.979Z,3.70
2017-10-12T06:50:08.485Z,3.57
2017-10-12T06:52:36.027Z,4.10
2017-10-12T06:55:03.532Z,3.63
2017-10-12T06:57:31.034Z,3.73
2017-10-12T06:59:58.541Z,3.40
2017-10-12T07:02:26.838Z,2.80
2017-10-12T07:04:54.349Z,3.50
2017-10-12T07:07:21.861Z,3.80
2017-10-12T07:09:49.389Z,3.50
2017-10-12T07:12:16.909Z,3.40
2017-10-12T07:14:44.437Z,3.40
2017-10-12T07:17:11.924Z,4.00
2017-10-12T07:19:39.427Z,3.60
2017-10-12T07:22:06.940Z,3.57
2017-10-12T07:24:34.465Z,4.13
2017-10-12T07:27:02.019Z,4.10
2017-10-12T07:29:29.528Z,3.20
2017-10-12T07:31:57.802Z,3.90
2017-10-12T07:34:25.320Z,4.50
2017-10-12T07:36:52.804Z,4.50
2017-10-12T07:39:20.321Z,3.90
2017-10-12T07:41:47.810Z,3.40
2017-10-12T07:44:15.344Z,3.30
2017-10-12T07:46:42.865Z,3.60
2017-10-12T07:49:10.381Z,3.30
2017-10-12T07:51:37.874Z,4.17
2017-10-12T07:54:06.157Z,3.20
2017-10-12T07:56:33.684Z,3.50
2017-10-12T07:59:02.696Z,3.77
2017-10-12T08:01:31.601Z,3.80
2017-10-12T08:03:59.891Z,3.10
2017-10-12T08:06:27.385Z,3.63
2017-10-12T08:08:54.896Z,3.20
2017-10-12T08:11:22.445Z,3.50
2017-10-12T08:13:50.715Z,2.90
2017-10-12T08:16:18.988Z,3.90
2017-10-12T08:18:47.293Z,2.90
2017-10-12T08:21:14.811Z,3.40
2017-10-12T08:23:43.088Z,2.50
2017-10-12T08:26:10.611Z,3.07
2017-10-12T08:28:38.151Z,3.10
2017-10-12T08:31:05.669Z,3.60
2017-10-12T08:33:33.949Z,3.97
2017-10-12T08:36:02.352Z,4.20
2017-10-12T08:38:29.876Z,3.27
2017-10-12T08:40:58.148Z,3.90
2017-10-12T08:43:26.409Z,2.87
2017-10-12T08:45:53.984Z,3.53
2017-10-12T08:48:22.272Z,3.47
2017-10-12T08:50:50.542Z,3.43
2017-10-12T08:53:21.269Z,3.27
2017-10-12T08:55:49.558Z,3.20
2017-10-12T08:58:17.076Z,3.27
2017-10-12T09:00:44.661Z,3.03
2017-10-12T09:03:12.956Z,3.47
2017-10-12T09:05:40.457Z,3.40
2017-10-12T09:08:07.972Z,3.27
2017-10-12T09:10:35.481Z,3.17
2017-10-12T09:13:02.991Z,3.50
2017-10-12T09:15:30.510Z,3.43
2017-10-12T09:17:58.005Z,2.67
2017-10-12T09:20:25.535Z,3.13
2017-10-12T09:22:53.798Z,3.10
2017-10-12T09:25:21.327Z,3.90
2017-10-12T09:27:48.822Z,3.67
2017-10-12T09:30:17.117Z,3.00
2017-10-12T09:32:45.376Z,3.17
2017-10-12T09:35:13.657Z,2.90
2017-10-12T09:37:41.948Z,3.30
2017-10-12T09:40:09.468Z,2.83
2017-10-12T09:42:37.009Z,3.10
2017-10-12T09:45:04.504Z,3.33
2017-10-12T09:47:32.792Z,3.27
2017-10-12T09:50:00.307Z,2.83
2017-10-12T09:52:27.833Z,2.93
2017-10-12T09:54:55.336Z,2.90
2017-10-12T09:57:23.450Z,3.10
2017-10-12T09:59:50.990Z,2.80
2017-10-12T10:02:19.266Z,3.30
2017-10-12T10:04:46.790Z,3.00
2017-10-12T10:07:14.278Z,3.30
2017-10-12T10:09:42.549Z,3.23
2017-10-12T10:12:10.845Z,3.60
2017-10-12T10:14:38.358Z,2.97
2017-10-12T10:17:07.373Z,4.47
2017-10-12T10:19:35.663Z,4.10
2017-10-12T10:22:03.182Z,3.90
2017-10-12T10:24:32.196Z,3.90
2017-10-12T10:27:00.453Z,3.67
2017-10-12T10:29:27.993Z,3.93
2017-10-12T10:31:56.389Z,3.80
2017-10-12T10:34:24.690Z,3.10
2017-10-12T10:36:52.970Z,3.03
2017-10-12T10:39:21.232Z,3.40
2017-10-12T10:41:49.508Z,4.10
2017-10-12T10:44:17.784Z,3.20
2017-10-12T10:46:46.090Z,4.07
2017-10-12T10:49:13.591Z,3.73
2017-10-12T10:51:41.101Z,3.53
2017-10-12T10:54:08.617Z,3.60
2017-10-12T10:56:36.130Z,3.77
2017-10-12T10:59:03.624Z,3.53
2017-10-12T11:01:31.116Z,4.20
2017-10-12T11:03:58.633Z,3.90
2017-10-12T11:06:26.132Z,3.87
2017-10-12T11:08:53.641Z,4.27
2017-10-12T11:11:21.146Z,3.50
2017-10-12T11:13:48.642Z,3.10
2017-10-12T11:16:16.149Z,3.97
2017-10-12T11:18:44.420Z,3.13
2017-10-12T11:21:12.709Z,3.70
2017-10-12T11:23:40.969Z,2.70
2017-10-12T11:26:09.252Z,3.13
2017-10-12T11:28:37.542Z,2.67
2017-10-12T11:31:05.059Z,2.97
2017-10-12T11:33:34.069Z,2.87
2017-10-12T11:36:02.356Z,3.23
2017-10-12T11:38:30.622Z,2.30
2017-10-12T11:40:58.913Z,3.03
2017-10-12T11:43:26.407Z,2.47
2017-10-12T11:45:53.908Z,2.30
2017-10-12T11:48:22.204Z,2.70
2017-10-12T11:50:49.717Z,3.40
2017-10-12T11:53:17.248Z,3.00
2017-10-12T11:55:44.745Z,3.07
2017-10-12T11:58:12.265Z,2.90
2017-10-12T12:00:39.829Z,3.10
2017-10-12T12:03:07.394Z,2.40
2017-10-12T12:05:35.058Z,2.83
2017-10-12T12:08:03.748Z,2.50
2017-10-12T12:10:33.599Z,2.83
2017-10-12T12:13:01.141Z,2.53
2017-10-12T12:15:28.672Z,2.67
2017-10-12T12:17:56.192Z,2.83
2017-10-12T12:20:23.712Z,2.50
2017-10-12T12:22:51.234Z,2.73
2017-10-12T12:25:18.729Z,1.97
2017-10-12T12:27:46.249Z,2.90
2017-10-12T12:30:13.748Z,2.23
2017-10-12T12:32:42.002Z,1.90
2017-10-12T12:35:09.514Z,2.80
2017-10-12T12:37:37.004Z,2.30
2017-10-12T12:40:04.529Z,2.70
2017-10-12T12:42:32.036Z,2.30
2017-10-12T12:45:00.370Z,3.03
2017-10-12T12:47:27.872Z,2.20
2017-10-12T12:49:56.149Z,2.30
2017-10-12T12:52:23.673Z,3.20
2017-10-12T12:54:51.189Z,2.27
2017-10-12T12:57:19.484Z,2.70
2017-10-12T12:59:46.989Z,2.17
2017-10-12T13:02:14.513Z,2.17
2017-10-12T13:04:42.009Z,2.07
2017-10-12T13:07:09.516Z,2.30
2017-10-12T13:09:37.014Z,2.20
2017-10-12T13:12:04.704Z,2.30
2017-10-12T13:14:33.364Z,2.00
2017-10-12T13:17:01.700Z,2.07
2017-10-12T13:19:29.202Z,2.17
2017-10-12T13:21:56.712Z,2.40
2017-10-12T13:24:24.331Z,1.97
2017-10-12T13:26:51.818Z,1.83
2017-10-12T13:29:19.353Z,2.03
2017-10-12T13:31:47.640Z,1.80
2017-10-12T13:34:15.174Z,1.70
2017-10-12T13:36:42.693Z,2.03
2017-10-12T13:39:10.231Z,1.67
2017-10-12T13:41:37.732Z,1.70
2017-10-12T13:44:05.252Z,1.97
2017-10-12T13:46:32.781Z,1.57
2017-10-12T13:49:01.052Z,2.27
2017-10-12T13:51:29.321Z,1.70
2017-10-12T13:53:57.597Z,1.60
2017-10-12T13:56:25.856Z,1.60
2017-10-12T13:58:53.456Z,1.97
2017-10-12T14:01:21.020Z,2.30
2017-10-12T14:11:28.525Z,2.13
2017-10-12T14:13:56.040Z,1.50
2017-10-12T14:16:23.553Z,1.87
2017-10-12T14:18:51.065Z,1.77
2017-10-12T14:21:18.605Z,2.00
2017-10-12T14:23:46.096Z,1.63
2017-10-12T14:26:13.662Z,1.73
2017-10-12T14:28:41.932Z,1.57
2017-10-12T14:31:10.202Z,1.43
2017-10-12T14:33:39.238Z,1.90
2017-10-12T14:36:06.742Z,1.60
2017-10-12T14:38:34.281Z,1.50
2017-10-12T14:41:01.802Z,1.60
2017-10-12T14:43:30.109Z,1.70
2017-10-12T14:45:57.604Z,1.80
2017-10-12T14:48:25.224Z,1.70
2017-10-12T14:50:52.760Z,1.97
2017-10-12T14:53:20.271Z,1.60
2017-10-12T14:55:47.797Z,1.70
2017-10-12T14:58:15.301Z,1.83
2017-10-12T15:00:42.896Z,1.80
2017-10-12T15:03:10.400Z,1.40
2017-10-12T15:05:37.916Z,1.40
2017-10-12T15:08:05.444Z,1.60
2017-10-12T15:10:32.972Z,1.80
2017-10-12T15:13:00.489Z,1.87
2017-10-12T15:15:27.984Z,1.70
2017-10-12T15:17:55.514Z,2.00
2017-10-12T15:20:23.010Z,1.70
2017-10-12T15:22:51.316Z,1.57
2017-10-12T15:25:19.591Z,1.60
2017-10-12T15:27:47.904Z,1.50
2017-10-12T15:30:15.410Z,1.57
2017-10-12T15:32:43.733Z,2.30
2017-10-12T15:35:11.260Z,2.30
2017-10-12T15:37:39.544Z,1.77
2017-10-12T15:40:07.078Z,2.00
2017-10-12T15:42:34.605Z,1.90
2017-10-12T15:45:02.133Z,2.00
2017-10-12T15:47:29.643Z,1.83
2017-10-12T15:49:57.156Z,2.07
2017-10-12T15:52:24.686Z,2.10
2017-10-12T15:54:52.206Z,1.70
2017-10-12T15:57:19.703Z,1.67
2017-10-12T15:59:47.242Z,2.00
2017-10-12T16:02:15.526Z,1.90
2017-10-12T16:04:43.838Z,2.10
2017-10-12T16:07:11.361Z,2.67
2017-10-12T16:09:39.628Z,2.73
2017-10-12T16:12:07.927Z,2.60
2017-10-12T16:14:35.454Z,3.50
2017-10-12T16:17:03.006Z,2.00
2017-10-12T16:19:30.521Z,1.80
2017-10-12T16:21:58.049Z,2.00
2017-10-12T16:24:26.320Z,1.70
2017-10-12T16:26:54.588Z,2.20
2017-10-12T16:29:22.923Z,2.40
2017-10-12T16:31:50.420Z,2.33
2017-10-12T16:34:17.956Z,2.10
2017-10-12T16:36:45.522Z,2.10
2017-10-12T16:39:13.065Z,2.40
2017-10-12T16:41:40.565Z,2.27
2017-10-12T16:44:08.871Z,1.83
2017-10-12T16:46:36.368Z,1.93
2017-10-12T16:49:03.871Z,2.20
2017-10-12T16:51:31.385Z,1.87
2017-10-12T16:53:58.921Z,2.23
2017-10-12T16:56:26.429Z,1.87
2017-10-12T16:58:54.721Z,2.67
2017-10-12T17:01:22.244Z,1.93
2017-10-12T17:03:49.750Z,2.47
2017-10-12T17:06:17.268Z,2.40
2017-10-12T17:08:45.576Z,2.90
2017-10-12T17:11:13.078Z,2.50
2017-10-12T17:13:40.644Z,2.30
2017-10-12T17:16:08.183Z,2.00
2017-10-12T17:18:35.710Z,2.60
2017-10-12T17:21:03.211Z,2.47
2017-10-12T17:25:59.165Z,2.47
2017-10-12T17:28:27.497Z,2.13
2017-10-12T17:33:22.586Z,3.10
2017-10-12T17:35:50.120Z,3.07
2017-10-12T17:38:17.695Z,2.80
2017-10-12T17:40:45.205Z,2.60
2017-10-12T17:43:12.770Z,3.07
2017-10-12T17:45:40.313Z,3.80
2017-10-12T17:48:07.826Z,3.53
2017-10-12T17:50:35.358Z,8.80
2017-10-12T17:53:02.921Z,5.93
2017-10-12T17:55:31.203Z,6.10
2017-10-12T17:57:59.520Z,5.03
2017-10-12T18:00:27.079Z,6.73
2017-10-12T18:02:54.588Z,5.23
2017-10-12T18:05:22.890Z,4.30
2017-10-12T18:07:50.409Z,4.33
2017-10-12T18:10:18.055Z,4.80
2017-10-12T18:12:45.609Z,4.30
2017-10-12T18:15:13.143Z,4.83
2017-10-12T18:17:40.685Z,3.90
2017-10-12T18:20:08.192Z,4.60
2017-10-12T18:22:35.751Z,5.03
2017-10-12T18:25:03.293Z,15.47
2017-10-12T18:27:30.829Z,34.90
2017-10-12T18:29:58.385Z,26.30
2017-10-12T18:32:25.890Z,10.60
2017-10-12T18:34:53.501Z,107.40
2017-10-12T18:37:21.062Z,56.50
2017-10-12T18:39:48.593Z,24.50
2017-10-12T18:44:44.498Z,11.80
2017-10-12T18:47:13.048Z,8.33
2017-10-12T18:49:41.015Z,6.40
2017-10-12T18:52:09.074Z,7.10
2017-10-12T18:54:37.055Z,6.30
2017-10-12T18:57:05.830Z,5.90
2017-10-12T18:59:34.617Z,5.70
2017-10-12T19:02:03.307Z,6.33
2017-10-12T19:04:31.177Z,7.30
2017-10-12T19:06:59.852Z,6.33
2017-10-12T19:09:27.930Z,6.97
2017-10-12T19:11:56.713Z,6.67
2017-10-12T19:14:24.591Z,6.03
2017-10-12T19:16:52.748Z,7.30
2017-10-12T19:19:21.776Z,6.60
2017-10-12T19:21:50.937Z,6.10
2017-10-12T19:24:18.906Z,6.90
2017-10-12T19:26:46.879Z,7.10
2017-10-12T19:29:15.660Z,7.10
2017-10-12T19:31:43.738Z,6.63
2017-10-12T19:34:11.810Z,7.03
2017-10-12T19:36:39.768Z,7.03
2017-10-12T19:39:07.839Z,6.47
2017-10-12T19:41:35.809Z,6.57
2017-10-12T19:44:03.776Z,7.53
2017-10-12T19:46:31.745Z,6.73
2017-10-12T19:49:00.430Z,6.70
2017-10-12T19:51:28.073Z,8.10
2017-10-12T19:53:55.665Z,8.00
2017-10-12T19:56:23.226Z,7.50
2017-10-12T19:59:05.727Z,7.60
2017-10-12T20:01:18.333Z,8.07
2017-10-12T20:03:45.924Z,7.37
2017-10-12T20:06:13.482Z,7.10
2017-10-12T20:08:41.895Z,7.70
2017-10-12T20:13:38.779Z,7.50
2017-10-12T20:16:06.322Z,6.93
2017-10-12T20:18:33.866Z,7.90
2017-10-12T20:21:02.247Z,8.43
2017-10-12T20:23:29.790Z,8.40
2017-10-12T20:25:58.066Z,7.77
2017-10-12T20:28:25.801Z,8.20
2017-10-12T20:30:53.321Z,8.73
2017-10-12T20:33:21.698Z,8.50
2017-10-12T20:35:49.229Z,7.90
2017-10-12T20:38:17.585Z,8.93
2017-10-12T20:40:45.896Z,7.80
2017-10-12T20:43:13.424Z,7.50
2017-10-12T20:45:41.714Z,7.60
2017-10-12T20:48:10.001Z,7.73
2017-10-12T20:50:37.533Z,8.43
2017-10-12T20:53:06.597Z,7.77
2017-10-12T20:55:34.127Z,7.33
2017-10-12T20:58:01.650Z,8.40
2017-10-12T21:00:29.949Z,7.93
2017-10-12T21:02:58.727Z,7.03
2017-10-12T21:05:26.268Z,7.20
2017-10-12T21:07:53.839Z,7.00
2017-10-12T21:10:22.116Z,7.50
2017-10-12T21:12:50.392Z,7.73
2017-10-12T21:15:18.699Z,8.43
2017-10-12T21:17:46.204Z,7.77
2017-10-12T21:20:13.721Z,7.07
2017-10-12T21:22:41.332Z,7.60
2017-10-12T21:25:09.615Z,7.50
2017-10-12T21:27:37.951Z,6.83
2017-10-12T21:30:05.475Z,6.07
2017-10-12T21:32:33.011Z,6.00
2017-10-12T21:35:01.272Z,6.80
2017-10-12T21:37:30.449Z,8.33
2017-10-12T21:39:57.962Z,6.43
2017-10-12T21:42:25.470Z,6.73
2017-10-12T21:44:53.008Z,7.10
2017-10-12T21:47:20.533Z,6.10
2017-10-12T21:49:48.111Z,6.40
2017-10-12T21:52:15.604Z,6.17
2017-10-12T21:54:43.112Z,7.50
2017-10-12T21:57:10.658Z,5.60
2017-10-12T21:59:38.186Z,5.87
2017-10-12T22:02:05.690Z,5.33
2017-10-12T22:04:33.226Z,5.07
2017-10-12T22:07:00.741Z,5.87
2017-10-12T22:09:28.293Z,5.93
2017-10-12T22:11:55.810Z,6.27
2017-10-12T22:14:23.325Z,5.70
2017-10-12T22:16:52.326Z,5.83
2017-10-12T22:19:20.638Z,5.20
2017-10-12T22:21:48.156Z,5.90
2017-10-12T22:24:15.659Z,6.40
2017-10-12T22:26:43.173Z,5.60
2017-10-12T22:29:10.693Z,4.70
2017-10-12T22:31:38.189Z,5.13
2017-10-12T22:34:06.464Z,5.10
2017-10-12T22:36:34.723Z,5.60
2017-10-12T22:39:02.256Z,6.77
2017-10-12T22:41:29.765Z,5.60
2017-10-12T22:43:58.061Z,4.80
2017-10-12T22:46:25.553Z,4.70
2017-10-12T22:48:53.067Z,6.00
2017-10-12T22:51:20.587Z,7.00
2017-10-12T22:53:48.091Z,6.80
2017-10-12T22:56:15.603Z,6.33
2017-10-12T22:58:43.161Z,6.87
2017-10-12T23:01:10.657Z,8.13
2017-10-12T23:03:38.165Z,7.60
2017-10-12T23:06:05.659Z,7.37
2017-10-12T23:08:33.944Z,7.10
2017-10-12T23:11:01.462Z,7.50
2017-10-12T23:13:29.747Z,6.50
2017-10-12T23:15:57.253Z,7.50
2017-10-12T23:18:24.792Z,6.50
2017-10-12T23:20:52.292Z,7.87
2017-10-12T23:23:19.820Z,7.70
2017-10-12T23:25:47.360Z,10.00
2017-10-12T23:28:15.625Z,7.87
2017-10-12T23:30:43.924Z,7.27
2017-10-12T23:33:11.424Z,7.33
2017-10-12T23:35:39.008Z,8.53
2017-10-12T23:38:07.324Z,8.30
2017-10-12T23:40:34.842Z,8.57
2017-10-12T23:43:03.147Z,9.20
2017-10-12T23:45:30.642Z,8.40
2017-10-12T23:47:58.138Z,8.93
2017-10-12T23:50:26.440Z,9.30
2017-10-12T23:52:53.940Z,8.80
2017-10-12T23:55:21.459Z,8.87
2017-10-12T23:57:48.970Z,8.17
